createdAt,value
2018-07-24T00:03:33.717Z,24.44
2018-07-24T00:08:36.786Z,24.39
2018-07-24T00:13:39.842Z,24.35
2018-07-24T00:18:42.970Z,24.29
2018-07-24T00:23:46.134Z,24.19
2018-07-24T00:28:49.235Z,24.09
2018-07-24T00:33:52.310Z,24.03
2018-07-24T00:38:55.353Z,24.01
2018-07-24T00:43:58.353Z,23.98
2018-07-24T00:49:01.362Z,23.90
2018-07-24T00:54:04.625Z,23.84
2018-07-24T00:59:07.684Z,23.82
2018-07-24T01:04:10.697Z,23.75
2018-07-24T01:09:13.718Z,23.67
2018-07-24T01:14:16.726Z,23.68
2018-07-24T01:19:19.790Z,23.63
2018-07-24T01:24:22.849Z,23.57
2018-07-24T01:29:25.853Z,23.59
2018-07-24T01:34:29.026Z,23.48
2018-07-24T01:39:32.161Z,23.38
2018-07-24T01:44:35.209Z,23.07
2018-07-24T01:49:38.279Z,23.24
2018-07-24T01:54:41.324Z,23.21
2018-07-24T01:59:44.360Z,23.23
2018-07-24T02:04:47.451Z,23.18
2018-07-24T02:09:50.516Z,23.07
2018-07-24T02:14:53.607Z,22.96
2018-07-24T02:19:56.718Z,22.87
2018-07-24T02:24:59.867Z,22.80
2018-07-24T02:30:03.030Z,22.82
2018-07-24T02:35:06.137Z,22.80
2018-07-24T02:40:09.214Z,22.77
2018-07-24T02:45:12.315Z,22.62
2018-07-24T02:50:15.439Z,22.55
2018-07-24T02:55:19.093Z,22.60
2018-07-24T03:00:22.195Z,22.50
2018-07-24T03:05:25.234Z,22.47
2018-07-24T03:10:28.644Z,22.48
2018-07-24T03:15:31.714Z,22.49
2018-07-24T03:20:34.778Z,22.48
2018-07-24T03:25:37.802Z,22.40
2018-07-24T03:30:40.867Z,22.39
2018-07-24T03:35:43.957Z,22.33
2018-07-24T03:40:46.978Z,22.28
2018-07-24T03:45:50.048Z,22.27
2018-07-24T03:50:53.109Z,22.12
2018-07-24T03:55:56.191Z,22.14
2018-07-24T04:00:59.215Z,22.22
2018-07-24T04:06:02.270Z,22.29
2018-07-24T04:11:05.852Z,22.37
2018-07-24T04:16:08.885Z,22.44
2018-07-24T04:21:11.975Z,22.48
2018-07-24T04:26:15.134Z,22.57
2018-07-24T04:31:18.167Z,22.78
2018-07-24T04:36:21.265Z,22.92
2018-07-24T04:41:24.309Z,23.03
2018-07-24T04:46:27.352Z,23.14
2018-07-24T04:51:30.429Z,23.34
2018-07-24T04:56:33.477Z,23.45
2018-07-24T05:01:36.441Z,23.65
2018-07-24T05:06:39.470Z,23.83
2018-07-24T05:11:43.246Z,24.04
2018-07-24T05:16:46.276Z,24.24
2018-07-24T05:21:49.273Z,24.49
2018-07-24T05:26:52.297Z,24.75
2018-07-24T05:31:55.348Z,24.88
2018-07-24T05:36:58.378Z,24.86
2018-07-24T05:42:01.389Z,25.07
2018-07-24T05:47:04.782Z,25.27
2018-07-24T05:52:07.762Z,25.57
2018-07-24T05:57:10.803Z,25.69
2018-07-24T06:02:13.852Z,26.01
2018-07-24T06:07:16.905Z,26.38
2018-07-24T06:12:19.954Z,26.71
2018-07-24T06:17:23.034Z,27.09
2018-07-24T06:22:26.131Z,27.40
2018-07-24T06:27:29.165Z,27.66
2018-07-24T06:32:32.218Z,27.82
2018-07-24T06:37:35.294Z,28.13
2018-07-24T06:42:38.380Z,28.32
2018-07-24T06:47:41.438Z,28.51
2018-07-24T06:52:44.766Z,28.68
2018-07-24T06:57:47.823Z,28.89
2018-07-24T07:02:50.844Z,29.09
2018-07-24T07:07:53.924Z,29.25
2018-07-24T07:12:56.994Z,29.40
2018-07-24T07:18:00.123Z,29.53
2018-07-24T07:23:03.242Z,29.69
2018-07-24T07:28:06.592Z,29.86
2018-07-24T07:33:09.609Z,30.02
2018-07-24T07:38:12.609Z,30.13
2018-07-24T07:43:15.749Z,30.26
2018-07-24T07:48:18.853Z,30.36
2018-07-24T07:53:21.879Z,30.48
2018-07-24T07:58:24.894Z,30.66
2018-07-24T08:03:27.964Z,30.88
2018-07-24T08:08:31.052Z,31.12
2018-07-24T08:13:34.143Z,31.32
2018-07-24T08:18:37.184Z,31.52
2018-07-24T08:23:40.189Z,31.67
2018-07-24T08:28:43.213Z,31.67
2018-07-24T08:33:46.274Z,31.84
2018-07-24T08:38:49.403Z,31.63
2018-07-24T08:43:52.453Z,31.62
2018-07-24T08:48:56.552Z,32.02
2018-07-24T08:53:59.968Z,32.39
2018-07-24T08:59:02.714Z,32.50
2018-07-24T09:04:05.851Z,32.45
2018-07-24T09:09:10.521Z,32.29
2018-07-24T09:14:13.600Z,32.53
2018-07-24T09:19:16.749Z,32.87
2018-07-24T09:24:19.790Z,32.86
2018-07-24T09:29:22.822Z,33.01
2018-07-24T09:34:25.879Z,33.27
2018-07-24T09:39:28.997Z,33.34
2018-07-24T09:44:31.998Z,33.27
2018-07-24T09:49:35.111Z,32.78
2018-07-24T09:54:38.165Z,32.64
2018-07-24T09:59:41.258Z,32.98
2018-07-24T10:04:44.293Z,33.38
2018-07-24T10:09:47.330Z,33.60
2018-07-24T10:14:50.325Z,33.62
2018-07-24T10:19:53.378Z,33.46
2018-07-24T10:24:56.418Z,33.24
2018-07-24T10:29:59.463Z,33.35
2018-07-24T10:35:02.537Z,33.36
2018-07-24T10:40:05.666Z,33.33
2018-07-24T10:45:08.666Z,33.06
2018-07-24T10:50:11.715Z,33.30
2018-07-24T10:55:14.909Z,33.78
2018-07-24T11:00:18.107Z,34.09
2018-07-24T11:05:21.212Z,34.02
2018-07-24T11:10:24.222Z,34.01
2018-07-24T11:15:27.291Z,34.32
2018-07-24T11:20:30.454Z,34.50
2018-07-24T11:25:33.497Z,34.32
2018-07-24T11:30:36.577Z,34.61
2018-07-24T11:35:39.631Z,34.65
2018-07-24T11:40:42.687Z,34.59
2018-07-24T11:45:45.726Z,34.56
2018-07-24T11:50:48.802Z,34.44
2018-07-24T11:55:51.883Z,34.35
2018-07-24T12:00:54.881Z,34.64
2018-07-24T12:05:57.919Z,34.74
2018-07-24T12:11:00.940Z,34.85
2018-07-24T12:16:04.062Z,34.98
2018-07-24T12:21:07.251Z,34.68
2018-07-24T12:26:10.305Z,34.55
2018-07-24T12:31:13.301Z,34.83
2018-07-24T12:36:16.479Z,35.29
2018-07-24T12:41:19.502Z,35.64
2018-07-24T12:46:22.597Z,35.76
2018-07-24T12:51:25.638Z,35.95
2018-07-24T12:56:28.719Z,36.11
2018-07-24T13:01:31.746Z,36.17
2018-07-24T13:06:34.791Z,35.86
2018-07-24T13:11:37.914Z,35.85
2018-07-24T13:16:41.009Z,35.31
2018-07-24T13:21:44.100Z,35.32
2018-07-24T13:26:47.191Z,35.57
2018-07-24T13:31:50.278Z,35.65
2018-07-24T13:36:53.275Z,35.25
2018-07-24T13:41:56.346Z,35.52
2018-07-24T13:46:59.439Z,35.52
2018-07-24T13:52:02.504Z,35.53
2018-07-24T13:57:05.478Z,35.92
2018-07-24T14:02:08.563Z,36.28
2018-07-24T14:07:11.778Z,35.95
2018-07-24T14:12:14.889Z,36.89
2018-07-24T14:17:17.935Z,37.26
2018-07-24T14:22:22.987Z,37.54
2018-07-24T14:27:26.126Z,37.66
2018-07-24T14:32:29.370Z,37.35
2018-07-24T14:37:32.559Z,37.14
2018-07-24T14:42:35.891Z,37.37
2018-07-24T14:47:40.187Z,37.52
2018-07-24T14:52:44.930Z,37.54
2018-07-24T14:57:48.924Z,37.25
2018-07-24T15:02:52.038Z,37.22
2018-07-24T15:07:56.036Z,37.04
2018-07-24T15:13:02.579Z,36.87
2018-07-24T15:18:05.960Z,37.35
2018-07-24T15:23:08.999Z,37.34
2018-07-24T15:28:12.143Z,38.00
2018-07-24T15:33:15.541Z,38.19
2018-07-24T15:38:18.675Z,37.65
2018-07-24T15:43:21.730Z,37.97
2018-07-24T15:48:24.763Z,37.59
2018-07-24T15:53:28.357Z,37.76
2018-07-24T15:58:37.379Z,37.77
2018-07-24T16:03:40.438Z,37.65
2018-07-24T16:08:43.463Z,37.39
2018-07-24T16:13:46.583Z,37.71
2018-07-24T16:18:49.736Z,37.92
2018-07-24T16:23:52.826Z,37.87
2018-07-24T16:28:55.970Z,37.86
2018-07-24T16:33:58.994Z,37.58
2018-07-24T16:39:02.090Z,37.46
2018-07-24T16:44:05.218Z,37.81
2018-07-24T16:49:08.242Z,37.92
2018-07-24T16:54:11.285Z,38.00
2018-07-24T16:59:14.525Z,37.82
2018-07-24T17:04:17.590Z,37.51
2018-07-24T17:09:21.410Z,36.86
2018-07-24T17:14:24.433Z,36.59
2018-07-24T17:19:27.494Z,36.25
2018-07-24T17:24:30.534Z,36.27
2018-07-24T17:29:33.926Z,36.13
2018-07-24T17:34:36.925Z,36.09
2018-07-24T17:39:39.942Z,35.98
2018-07-24T17:44:44.152Z,35.82
2018-07-24T17:49:47.220Z,35.80
2018-07-24T17:54:50.265Z,35.57
2018-07-24T17:59:53.425Z,35.47
2018-07-24T18:04:56.503Z,35.49
2018-07-24T18:09:59.694Z,35.44
2018-07-24T18:15:02.951Z,35.18
2018-07-24T18:20:06.046Z,35.08
2018-07-24T18:25:09.727Z,34.99
2018-07-24T18:30:12.883Z,34.92
2018-07-24T18:35:15.974Z,34.83
2018-07-24T18:45:28.807Z,34.53
2018-07-24T18:50:31.940Z,34.39
2018-07-24T18:55:34.968Z,34.22
2018-07-24T19:00:37.977Z,34.01
2018-07-24T19:05:41.131Z,33.78
2018-07-24T19:10:44.163Z,33.53
2018-07-24T19:15:47.238Z,33.33
2018-07-24T19:20:50.314Z,33.15
2018-07-24T19:25:53.365Z,32.97
2018-07-24T19:30:56.532Z,32.82
2018-07-24T19:35:59.890Z,32.68
2018-07-24T19:41:05.620Z,32.50
2018-07-24T19:46:08.713Z,32.31
2018-07-24T19:51:12.911Z,32.16
2018-07-24T19:56:16.003Z,32.00
2018-07-24T20:01:19.090Z,31.83
2018-07-24T20:06:22.126Z,31.69
2018-07-24T20:11:25.209Z,31.57
2018-07-24T20:16:28.203Z,31.44
2018-07-24T20:21:31.363Z,31.31
2018-07-24T20:26:34.446Z,31.13
2018-07-24T20:31:37.844Z,30.20
2018-07-24T20:36:40.907Z,30.83
2018-07-24T20:41:44.102Z,30.68
2018-07-24T20:46:47.170Z,30.43
2018-07-24T20:51:50.234Z,30.33
2018-07-24T20:56:53.253Z,30.32
2018-07-24T21:01:56.284Z,30.23
2018-07-24T21:06:59.331Z,30.14
2018-07-24T21:12:02.345Z,30.04
2018-07-24T21:17:05.554Z,29.93
2018-07-24T21:22:08.616Z,29.80
2018-07-24T21:27:11.654Z,29.57
2018-07-24T21:32:14.725Z,29.45
2018-07-24T21:37:17.786Z,29.34
2018-07-24T21:42:20.819Z,29.28
2018-07-24T21:47:23.834Z,29.15
2018-07-24T21:52:26.944Z,28.98
2018-07-24T21:57:30.039Z,28.78
2018-07-24T22:02:33.110Z,28.51
2018-07-24T22:07:36.411Z,28.14
2018-07-24T22:12:39.469Z,27.88
2018-07-24T22:17:43.180Z,27.75
2018-07-24T22:22:46.446Z,27.71
2018-07-24T22:27:49.519Z,27.70
2018-07-24T22:32:52.537Z,27.85
2018-07-24T22:37:55.629Z,28.09
2018-07-24T22:42:58.645Z,28.16
2018-07-24T22:48:01.729Z,28.14
2018-07-24T22:53:04.861Z,28.09
2018-07-24T22:58:07.865Z,27.89
2018-07-24T23:03:11.498Z,27.81
2018-07-24T23:08:14.525Z,27.69
2018-07-24T23:13:17.593Z,27.62
2018-07-24T23:18:20.638Z,27.56
2018-07-24T23:23:23.673Z,27.46
2018-07-24T23:28:26.763Z,27.34
2018-07-24T23:33:29.880Z,27.27
2018-07-24T23:38:33.022Z,27.22
2018-07-24T23:43:36.022Z,27.17
2018-07-24T23:48:39.050Z,27.07
2018-07-24T23:53:42.047Z,27.01
2018-07-24T23:58:45.062Z,26.97
